sensor_id;sensor_type;location;lat;lon;timestamp;pressure;altitude;pressure_sealevel;temperature;humidity
34103;BME280;20381;54.498;18.206;2023-05-23T00:01:02;99658.11;;;11.79;52.96
34103;BME280;20381;54.498;18.206;2023-05-23T00:03:31;99654.92;;;11.81;53.16
34103;BME280;20381;54.498;18.206;2023-05-23T00:05:58;99654.92;;;11.81;53.16
34103;BME280;20381;54.498;18.206;2023-05-23T00:08:24;99654.39;;;11.83;53.22
34103;BME280;20381;54.498;18.206;2023-05-23T00:10:51;99654.66;;;11.88;53.26
34103;BME280;20381;54.498;18.206;2023-05-23T00:13:17;99655.39;;;11.90;53.22
34103;BME280;20381;54.498;18.206;2023-05-23T00:15:43;99655.39;;;11.90;53.22
34103;BME280;20381;54.498;18.206;2023-05-23T00:18:10;99655.02;;;11.89;53.42
34103;BME280;20381;54.498;18.206;2023-05-23T00:20:37;99648.31;;;11.92;53.51
34103;BME280;20381;54.498;18.206;2023-05-23T00:23:11;99648.31;;;11.92;53.51
34103;BME280;20381;54.498;18.206;2023-05-23T00:25:39;99647.38;;;11.93;53.73
34103;BME280;20381;54.498;18.206;2023-05-23T00:28:05;99649.08;;;11.94;53.73
34103;BME280;20381;54.498;18.206;2023-05-23T00:30:33;99645.06;;;11.95;53.86
34103;BME280;20381;54.498;18.206;2023-05-23T00:32:59;99642.91;;;11.95;53.92
34103;BME280;20381;54.498;18.206;2023-05-23T00:35:27;99642.91;;;11.95;54.12
34103;BME280;20381;54.498;18.206;2023-05-23T00:37:53;99633.08;;;11.91;54.10
34103;BME280;20381;54.498;18.206;2023-05-23T00:40:21;99631.94;;;11.88;54.17
34103;BME280;20381;54.498;18.206;2023-05-23T00:42:47;99629.03;;;11.85;54.26
34103;BME280;20381;54.498;18.206;2023-05-23T00:45:14;99623.36;;;11.84;54.30
34103;BME280;20381;54.498;18.206;2023-05-23T00:47:42;99618.23;;;11.83;54.42
34103;BME280;20381;54.498;18.206;2023-05-23T00:50:11;99623.62;;;11.80;54.51
34103;BME280;20381;54.498;18.206;2023-05-23T00:52:40;99617.63;;;11.78;54.42
34103;BME280;20381;54.498;18.206;2023-05-23T00:55:08;99611.66;;;11.67;54.74
34103;BME280;20381;54.498;18.206;2023-05-23T00:57:35;99617.52;;;11.63;54.87
34103;BME280;20381;54.498;18.206;2023-05-23T01:00:09;99617.52;;;11.63;54.87
34103;BME280;20381;54.498;18.206;2023-05-23T01:02:44;99615.08;;;11.60;55.02
34103;BME280;20381;54.498;18.206;2023-05-23T01:05:14;99622.62;;;11.58;55.13
34103;BME280;20381;54.498;18.206;2023-05-23T01:07:47;99616.41;;;11.52;55.32
34103;BME280;20381;54.498;18.206;2023-05-23T01:10:15;99614.70;;;11.51;55.56
34103;BME280;20381;54.498;18.206;2023-05-23T01:15:37;99612.19;;;11.49;55.58
34103;BME280;20381;54.498;18.206;2023-05-23T01:18:12;99618.42;;;11.47;55.74
34103;BME280;20381;54.498;18.206;2023-05-23T01:20:49;99606.58;;;11.39;55.89
34103;BME280;20381;54.498;18.206;2023-05-23T01:26:02;99609.19;;;11.39;56.06
34103;BME280;20381;54.498;18.206;2023-05-23T01:28:36;99601.91;;;11.37;56.07
34103;BME280;20381;54.498;18.206;2023-05-23T01:31:02;99606.23;;;11.30;56.28
34103;BME280;20381;54.498;18.206;2023-05-23T01:33:31;99606.23;;;11.30;56.28
34103;BME280;20381;54.498;18.206;2023-05-23T01:36:00;99606.63;;;11.22;56.27
34103;BME280;20381;54.498;18.206;2023-05-23T01:38:29;99610.33;;;11.18;56.40
34103;BME280;20381;54.498;18.206;2023-05-23T01:40:55;99602.65;;;11.15;56.66
34103;BME280;20381;54.498;18.206;2023-05-23T01:43:23;99605.55;;;11.09;56.46
34103;BME280;20381;54.498;18.206;2023-05-23T01:45:56;99601.42;;;11.05;56.69
34103;BME280;20381;54.498;18.206;2023-05-23T01:48:20;99607.17;;;11.03;56.91
34103;BME280;20381;54.498;18.206;2023-05-23T01:50:48;99600.80;;;11.00;57.01
34103;BME280;20381;54.498;18.206;2023-05-23T01:53:19;99595.13;;;10.91;56.94
34103;BME280;20381;54.498;18.206;2023-05-23T01:55:45;99599.20;;;10.80;56.98
34103;BME280;20381;54.498;18.206;2023-05-23T01:58:12;99596.34;;;10.67;57.22
34103;BME280;20381;54.498;18.206;2023-05-23T02:00:39;99599.57;;;10.55;57.39
34103;BME280;20381;54.498;18.206;2023-05-23T02:03:06;99595.59;;;10.47;57.54
34103;BME280;20381;54.498;18.206;2023-05-23T02:05:32;99603.69;;;10.41;57.64
34103;BME280;20381;54.498;18.206;2023-05-23T02:07:58;99602.22;;;10.36;57.77
34103;BME280;20381;54.498;18.206;2023-05-23T02:10:25;99600.69;;;10.32;58.04
34103;BME280;20381;54.498;18.206;2023-05-23T02:12:52;99599.86;;;10.31;58.26
34103;BME280;20381;54.498;18.206;2023-05-23T02:15:18;99594.63;;;10.31;58.23
34103;BME280;20381;54.498;18.206;2023-05-23T02:17:44;99593.70;;;10.32;58.29
34103;BME280;20381;54.498;18.206;2023-05-23T02:20:11;99593.48;;;10.28;58.27
34103;BME280;20381;54.498;18.206;2023-05-23T02:22:37;99594.19;;;10.21;58.39
34103;BME280;20381;54.498;18.206;2023-05-23T02:25:05;99592.71;;;10.16;58.53
34103;BME280;20381;54.498;18.206;2023-05-23T02:27:33;99585.18;;;10.09;58.71
34103;BME280;20381;54.498;18.206;2023-05-23T02:30:00;99581.79;;;10.07;58.80
34103;BME280;20381;54.498;18.206;2023-05-23T02:32:26;99578.44;;;10.05;58.97
34103;BME280;20381;54.498;18.206;2023-05-23T02:34:52;99579.27;;;10.06;59.04
34103;BME280;20381;54.498;18.206;2023-05-23T02:37:18;99579.86;;;10.02;59.23
34103;BME280;20381;54.498;18.206;2023-05-23T02:39:45;99579.48;;;10.01;59.22
34103;BME280;20381;54.498;18.206;2023-05-23T02:42:11;99575.34;;;9.97;59.29
34103;BME280;20381;54.498;18.206;2023-05-23T02:44:37;99574.70;;;9.92;59.34
34103;BME280;20381;54.498;18.206;2023-05-23T02:47:04;99571.84;;;9.88;59.42
34103;BME280;20381;54.498;18.206;2023-05-23T02:49:30;99568.02;;;9.86;59.76
34103;BME280;20381;54.498;18.206;2023-05-23T02:51:56;99570.62;;;9.86;59.72
34103;BME280;20381;54.498;18.206;2023-05-23T02:54:23;99571.98;;;9.85;59.81
34103;BME280;20381;54.498;18.206;2023-05-23T02:56:49;99568.91;;;9.85;59.94
34103;BME280;20381;54.498;18.206;2023-05-23T02:59:17;99568.22;;;9.82;59.91
34103;BME280;20381;54.498;18.206;2023-05-23T03:01:43;99562.22;;;9.80;59.98
34103;BME280;20381;54.498;18.206;2023-05-23T03:04:14;99561.84;;;9.79;59.96
34103;BME280;20381;54.498;18.206;2023-05-23T03:06:39;99558.77;;;9.79;60.13
34103;BME280;20381;54.498;18.206;2023-05-23T03:09:08;99559.87;;;9.84;60.32
34103;BME280;20381;54.498;18.206;2023-05-23T03:11:35;99559.95;;;9.91;60.45
34103;BME280;20381;54.498;18.206;2023-05-23T03:14:02;99559.13;;;9.99;60.68
34103;BME280;20381;54.498;18.206;2023-05-23T03:16:28;99564.69;;;10.11;61.10
34103;BME280;20381;54.498;18.206;2023-05-23T03:18:54;99560.35;;;10.20;60.96
34103;BME280;20381;54.498;18.206;2023-05-23T03:21:20;99567.98;;;10.33;61.06
34103;BME280;20381;54.498;18.206;2023-05-23T03:23:46;99559.41;;;10.48;61.10
34103;BME280;20381;54.498;18.206;2023-05-23T03:26:13;99559.94;;;10.64;61.15
34103;BME280;20381;54.498;18.206;2023-05-23T03:28:40;99558.66;;;10.81;61.22
34103;BME280;20381;54.498;18.206;2023-05-23T03:31:06;99552.84;;;11.01;61.30
34103;BME280;20381;54.498;18.206;2023-05-23T03:33:32;99555.28;;;11.21;61.48
34103;BME280;20381;54.498;18.206;2023-05-23T03:35:58;99554.13;;;11.42;61.38
34103;BME280;20381;54.498;18.206;2023-05-23T03:38:26;99547.09;;;11.60;61.35
34103;BME280;20381;54.498;18.206;2023-05-23T03:40:52;99544.86;;;11.77;61.34
34103;BME280;20381;54.498;18.206;2023-05-23T03:43:19;99522.81;;;11.81;61.40
34103;BME280;20381;54.498;18.206;2023-05-23T03:45:45;99539.80;;;12.06;61.45
34103;BME280;20381;54.498;18.206;2023-05-23T03:48:12;99540.62;;;12.22;61.58
34103;BME280;20381;54.498;18.206;2023-05-23T03:50:38;99541.22;;;12.35;61.44
34103;BME280;20381;54.498;18.206;2023-05-23T03:53:05;99537.92;;;12.47;61.60
34103;BME280;20381;54.498;18.206;2023-05-23T03:55:32;99543.19;;;12.61;61.60
34103;BME280;20381;54.498;18.206;2023-05-23T03:57:59;99535.55;;;12.72;61.71
34103;BME280;20381;54.498;18.206;2023-05-23T04:00:25;99530.33;;;12.87;61.80
34103;BME280;20381;54.498;18.206;2023-05-23T04:02:52;99530.70;;;13.02;61.84
34103;BME280;20381;54.498;18.206;2023-05-23T04:05:19;99533.89;;;13.21;61.93
34103;BME280;20381;54.498;18.206;2023-05-23T04:07:45;99526.72;;;13.39;61.84
34103;BME280;20381;54.498;18.206;2023-05-23T04:10:11;99521.55;;;13.59;61.79
34103;BME280;20381;54.498;18.206;2023-05-23T04:12:38;99524.77;;;13.77;61.67
34103;BME280;20381;54.498;18.206;2023-05-23T04:15:07;99523.69;;;13.94;61.50
34103;BME280;20381;54.498;18.206;2023-05-23T04:17:33;99517.27;;;14.13;61.47
34103;BME280;20381;54.498;18.206;2023-05-23T04:20:00;99521.30;;;14.31;61.39
34103;BME280;20381;54.498;18.206;2023-05-23T04:22:26;99520.09;;;14.49;61.61
34103;BME280;20381;54.498;18.206;2023-05-23T04:24:52;99513.44;;;14.71;61.70
34103;BME280;20381;54.498;18.206;2023-05-23T04:27:19;99512.82;;;14.93;61.88
34103;BME280;20381;54.498;18.206;2023-05-23T04:29:47;99516.09;;;15.15;61.77
34103;BME280;20381;54.498;18.206;2023-05-23T04:32:13;99515.18;;;15.34;61.78
34103;BME280;20381;54.498;18.206;2023-05-23T04:34:41;99514.86;;;15.52;61.67
34103;BME280;20381;54.498;18.206;2023-05-23T04:37:12;99512.41;;;15.74;61.84
34103;BME280;20381;54.498;18.206;2023-05-23T04:39:39;99511.56;;;15.98;61.50
34103;BME280;20381;54.498;18.206;2023-05-23T04:42:06;99512.73;;;16.18;61.19
34103;BME280;20381;54.498;18.206;2023-05-23T04:44:32;99511.71;;;16.31;60.92
34103;BME280;20381;54.498;18.206;2023-05-23T04:46:59;99508.66;;;16.49;60.84
34103;BME280;20381;54.498;18.206;2023-05-23T04:49:27;99504.26;;;16.66;60.83
34103;BME280;20381;54.498;18.206;2023-05-23T04:51:54;99505.67;;;16.89;61.13
34103;BME280;20381;54.498;18.206;2023-05-23T04:54:23;99502.09;;;17.12;60.79
34103;BME280;20381;54.498;18.206;2023-05-23T04:56:54;99504.38;;;17.34;60.44
34103;BME280;20381;54.498;18.206;2023-05-23T04:59:17;99507.59;;;17.54;60.47
34103;BME280;20381;54.498;18.206;2023-05-23T05:01:44;99500.45;;;17.77;60.16
34103;BME280;20381;54.498;18.206;2023-05-23T05:04:10;99499.01;;;17.96;59.82
34103;BME280;20381;54.498;18.206;2023-05-23T05:06:37;99504.11;;;18.08;59.58
34103;BME280;20381;54.498;18.206;2023-05-23T05:09:06;99497.33;;;18.27;59.34
34103;BME280;20381;54.498;18.206;2023-05-23T05:11:33;99499.66;;;18.41;59.29
34103;BME280;20381;54.498;18.206;2023-05-23T05:13:59;99495.72;;;18.56;58.98
34103;BME280;20381;54.498;18.206;2023-05-23T05:16:30;99489.53;;;18.67;58.45
34103;BME280;20381;54.498;18.206;2023-05-23T05:18:56;99489.00;;;18.73;58.54
34103;BME280;20381;54.498;18.206;2023-05-23T05:21:22;99485.86;;;18.85;58.40
34103;BME280;20381;54.498;18.206;2023-05-23T05:23:49;99487.44;;;18.97;58.05
34103;BME280;20381;54.498;18.206;2023-05-23T05:26:16;99479.34;;;19.05;57.67
34103;BME280;20381;54.498;18.206;2023-05-23T05:28:44;99485.59;;;19.19;57.51
34103;BME280;20381;54.498;18.206;2023-05-23T05:31:10;99489.31;;;19.32;57.43
34103;BME280;20381;54.498;18.206;2023-05-23T05:33:39;99482.64;;;19.37;57.17
34103;BME280;20381;54.498;18.206;2023-05-23T05:36:07;99478.84;;;19.45;57.05
34103;BME280;20381;54.498;18.206;2023-05-23T05:38:33;99474.20;;;19.53;56.96
34103;BME280;20381;54.498;18.206;2023-05-23T05:41:00;99478.31;;;19.67;56.83
34103;BME280;20381;54.498;18.206;2023-05-23T05:43:26;99481.11;;;19.85;56.65
34103;BME280;20381;54.498;18.206;2023-05-23T05:45:53;99476.67;;;19.95;56.36
34103;BME280;20381;54.498;18.206;2023-05-23T05:48:19;99472.34;;;20.04;56.14
34103;BME280;20381;54.498;18.206;2023-05-23T05:50:46;99469.89;;;20.16;56.19
34103;BME280;20381;54.498;18.206;2023-05-23T05:53:12;99475.84;;;20.33;55.78
34103;BME280;20381;54.498;18.206;2023-05-23T05:55:39;99467.73;;;20.45;55.54
34103;BME280;20381;54.498;18.206;2023-05-23T05:58:10;99469.27;;;20.57;55.25
34103;BME280;20381;54.498;18.206;2023-05-23T06:00:35;99459.86;;;20.72;55.01
34103;BME280;20381;54.498;18.206;2023-05-23T06:03:03;99470.52;;;20.86;54.92
34103;BME280;20381;54.498;18.206;2023-05-23T06:05:30;99469.20;;;21.00;54.84
34103;BME280;20381;54.498;18.206;2023-05-23T06:07:56;99469.49;;;21.20;54.56
34103;BME280;20381;54.498;18.206;2023-05-23T06:10:22;99462.37;;;21.35;54.16
34103;BME280;20381;54.498;18.206;2023-05-23T06:12:49;99466.84;;;21.48;53.95
34103;BME280;20381;54.498;18.206;2023-05-23T06:15:17;99463.41;;;21.65;53.69
34103;BME280;20381;54.498;18.206;2023-05-23T06:17:43;99464.44;;;21.86;53.48
34103;BME280;20381;54.498;18.206;2023-05-23T06:20:11;99464.48;;;22.08;53.10
34103;BME280;20381;54.498;18.206;2023-05-23T06:22:37;99456.38;;;22.28;52.77
34103;BME280;20381;54.498;18.206;2023-05-23T06:25:04;99453.90;;;22.52;52.34
34103;BME280;20381;54.498;18.206;2023-05-23T06:27:31;99447.73;;;22.78;52.47
34103;BME280;20381;54.498;18.206;2023-05-23T06:29:58;99452.09;;;23.13;52.22
34103;BME280;20381;54.498;18.206;2023-05-23T06:32:24;99444.41;;;23.44;51.69
34103;BME280;20381;54.498;18.206;2023-05-23T06:34:51;99452.17;;;23.80;51.43
34103;BME280;20381;54.498;18.206;2023-05-23T06:37:17;99443.55;;;24.15;51.05
34103;BME280;20381;54.498;18.206;2023-05-23T06:39:44;99439.55;;;24.52;50.45
34103;BME280;20381;54.498;18.206;2023-05-23T06:42:10;99441.47;;;24.91;50.18
34103;BME280;20381;54.498;18.206;2023-05-23T06:44:37;99442.34;;;25.31;49.95
34103;BME280;20381;54.498;18.206;2023-05-23T06:47:06;99438.72;;;25.86;49.88
34103;BME280;20381;54.498;18.206;2023-05-23T06:49:33;99438.79;;;26.58;49.59
34103;BME280;20381;54.498;18.206;2023-05-23T06:51:59;99433.33;;;27.29;49.02
34103;BME280;20381;54.498;18.206;2023-05-23T06:54:25;99429.41;;;28.15;48.59
34103;BME280;20381;54.498;18.206;2023-05-23T06:56:52;99432.27;;;28.98;48.25
34103;BME280;20381;54.498;18.206;2023-05-23T06:59:23;99434.12;;;29.63;46.78
34103;BME280;20381;54.498;18.206;2023-05-23T07:01:50;99433.28;;;30.06;46.10
34103;BME280;20381;54.498;18.206;2023-05-23T07:04:22;99423.78;;;30.50;45.69
34103;BME280;20381;54.498;18.206;2023-05-23T07:06:46;99425.71;;;30.66;44.09
34103;BME280;20381;54.498;18.206;2023-05-23T07:09:17;99426.44;;;30.10;43.26
34103;BME280;20381;54.498;18.206;2023-05-23T07:11:43;99429.23;;;29.62;43.42
34103;BME280;20381;54.498;18.206;2023-05-23T07:14:10;99426.23;;;29.92;43.21
34103;BME280;20381;54.498;18.206;2023-05-23T07:16:39;99418.58;;;30.62;42.45
34103;BME280;20381;54.498;18.206;2023-05-23T07:19:08;99421.67;;;31.15;42.23
34103;BME280;20381;54.498;18.206;2023-05-23T07:21:34;99415.78;;;31.76;41.32
34103;BME280;20381;54.498;18.206;2023-05-23T07:24:02;99419.45;;;32.29;41.02
34103;BME280;20381;54.498;18.206;2023-05-23T07:26:29;99421.21;;;32.86;40.68
34103;BME280;20381;54.498;18.206;2023-05-23T07:28:56;99416.92;;;33.63;40.11
34103;BME280;20381;54.498;18.206;2023-05-23T07:31:23;99408.38;;;34.32;39.05
34103;BME280;20381;54.498;18.206;2023-05-23T07:33:51;99405.39;;;34.92;38.60
34103;BME280;20381;54.498;18.206;2023-05-23T07:36:16;99408.25;;;35.67;37.80
34103;BME280;20381;54.498;18.206;2023-05-23T07:38:43;99405.41;;;36.24;36.34
34103;BME280;20381;54.498;18.206;2023-05-23T07:41:09;99404.30;;;36.76;36.07
34103;BME280;20381;54.498;18.206;2023-05-23T07:43:35;99400.39;;;37.10;35.61
34103;BME280;20381;54.498;18.206;2023-05-23T07:46:01;99401.94;;;37.50;34.63
34103;BME280;20381;54.498;18.206;2023-05-23T07:48:28;99397.25;;;37.73;34.14
34103;BME280;20381;54.498;18.206;2023-05-23T07:50:55;99396.19;;;37.74;33.13
34103;BME280;20381;54.498;18.206;2023-05-23T07:53:21;99394.27;;;37.74;32.60
34103;BME280;20381;54.498;18.206;2023-05-23T07:55:48;99398.45;;;37.55;31.88
34103;BME280;20381;54.498;18.206;2023-05-23T07:58:14;99393.58;;;36.66;30.57
34103;BME280;20381;54.498;18.206;2023-05-23T08:00:41;99393.58;;;36.66;30.57
34103;BME280;20381;54.498;18.206;2023-05-23T08:03:09;99392.87;;;37.17;29.74
34103;BME280;20381;54.498;18.206;2023-05-23T08:05:36;99385.19;;;37.36;29.73
34103;BME280;20381;54.498;18.206;2023-05-23T08:08:02;99367.45;;;37.34;28.84
34103;BME280;20381;54.498;18.206;2023-05-23T08:10:28;99367.45;;;37.34;28.84
34103;BME280;20381;54.498;18.206;2023-05-23T08:12:55;99363.22;;;37.75;28.61
34103;BME280;20381;54.498;18.206;2023-05-23T08:15:23;99386.76;;;38.19;27.68
34103;BME280;20381;54.498;18.206;2023-05-23T08:17:49;99383.05;;;37.95;27.56
34103;BME280;20381;54.498;18.206;2023-05-23T08:20:15;99387.22;;;37.76;26.44
34103;BME280;20381;54.498;18.206;2023-05-23T08:22:42;99383.79;;;37.09;26.51
34103;BME280;20381;54.498;18.206;2023-05-23T08:25:10;99393.48;;;36.81;26.28
34103;BME280;20381;54.498;18.206;2023-05-23T08:27:36;99385.88;;;36.83;26.06
34103;BME280;20381;54.498;18.206;2023-05-23T08:30:04;99385.88;;;36.83;26.06
34103;BME280;20381;54.498;18.206;2023-05-23T08:32:32;99386.27;;;36.69;24.74
34103;BME280;20381;54.498;18.206;2023-05-23T08:34:58;99386.45;;;35.78;24.52
34103;BME280;20381;54.498;18.206;2023-05-23T08:37:24;99392.96;;;34.68;24.05
34103;BME280;20381;54.498;18.206;2023-05-23T08:39:51;99396.05;;;33.94;24.30
34103;BME280;20381;54.498;18.206;2023-05-23T08:42:17;99390.88;;;33.72;24.05
34103;BME280;20381;54.498;18.206;2023-05-23T08:44:43;99394.55;;;33.98;24.68
34103;BME280;20381;54.498;18.206;2023-05-23T08:47:10;99387.73;;;35.30;24.89
34103;BME280;20381;54.498;18.206;2023-05-23T08:49:38;99386.41;;;36.43;23.94
34103;BME280;20381;54.498;18.206;2023-05-23T08:52:06;99394.28;;;36.59;22.53
34103;BME280;20381;54.498;18.206;2023-05-23T08:54:34;99389.29;;;36.17;23.13
34103;BME280;20381;54.498;18.206;2023-05-23T08:57:01;99394.05;;;36.63;22.85
34103;BME280;20381;54.498;18.206;2023-05-23T08:59:28;99394.05;;;36.63;22.85
34103;BME280;20381;54.498;18.206;2023-05-23T09:01:55;99365.19;;;37.01;22.90
34103;BME280;20381;54.498;18.206;2023-05-23T09:04:23;99399.25;;;38.15;22.51
34103;BME280;20381;54.498;18.206;2023-05-23T09:06:49;99386.48;;;38.58;22.04
34103;BME280;20381;54.498;18.206;2023-05-23T09:09:15;99380.47;;;39.13;22.63
34103;BME280;20381;54.498;18.206;2023-05-23T09:11:42;99392.06;;;40.05;21.41
34103;BME280;20381;54.498;18.206;2023-05-23T09:14:11;99390.17;;;39.98;21.55
34103;BME280;20381;54.498;18.206;2023-05-23T09:16:39;99381.42;;;39.91;21.32
34103;BME280;20381;54.498;18.206;2023-05-23T09:19:12;99378.71;;;39.80;21.08
34103;BME280;20381;54.498;18.206;2023-05-23T09:21:43;99384.73;;;39.77;20.37
34103;BME280;20381;54.498;18.206;2023-05-23T09:24:11;99377.27;;;39.39;20.73
34103;BME280;20381;54.498;18.206;2023-05-23T09:26:37;99382.50;;;38.83;20.21
34103;BME280;20381;54.498;18.206;2023-05-23T09:29:05;99384.78;;;38.12;20.24
34103;BME280;20381;54.498;18.206;2023-05-23T09:31:32;99384.23;;;37.50;19.95
34103;BME280;20381;54.498;18.206;2023-05-23T09:33:59;99373.11;;;37.30;20.60
34103;BME280;20381;54.498;18.206;2023-05-23T09:36:27;99374.05;;;38.37;20.59
34103;BME280;20381;54.498;18.206;2023-05-23T09:38:55;99371.66;;;38.99;19.93
34103;BME280;20381;54.498;18.206;2023-05-23T09:41:22;99376.64;;;38.57;19.63
34103;BME280;20381;54.498;18.206;2023-05-23T09:43:52;99367.21;;;37.62;19.87
34103;BME280;20381;54.498;18.206;2023-05-23T09:46:20;99369.98;;;37.68;20.21
34103;BME280;20381;54.498;18.206;2023-05-23T09:48:48;99372.03;;;38.20;20.25
34103;BME280;20381;54.498;18.206;2023-05-23T09:51:18;99375.19;;;38.01;19.72
34103;BME280;20381;54.498;18.206;2023-05-23T09:53:46;99374.96;;;37.76;19.46
34103;BME280;20381;54.498;18.206;2023-05-23T09:56:15;99365.28;;;37.93;19.62
34103;BME280;20381;54.498;18.206;2023-05-23T09:58:47;99375.43;;;37.68;18.93
34103;BME280;20381;54.498;18.206;2023-05-23T10:01:14;99372.59;;;37.33;19.00
34103;BME280;20381;54.498;18.206;2023-05-23T10:03:49;99379.89;;;37.79;19.19
34103;BME280;20381;54.498;18.206;2023-05-23T10:06:21;99378.62;;;38.24;19.02
34103;BME280;20381;54.498;18.206;2023-05-23T10:09:01;99365.76;;;38.62;18.86
34103;BME280;20381;54.498;18.206;2023-05-23T10:14:09;99366.19;;;38.96;18.33
34103;BME280;20381;54.498;18.206;2023-05-23T10:16:48;99373.20;;;38.74;17.99
34103;BME280;20381;54.498;18.206;2023-05-23T10:19:26;99370.62;;;38.49;18.11
34103;BME280;20381;54.498;18.206;2023-05-23T10:21:56;99359.17;;;38.53;18.27
34103;BME280;20381;54.498;18.206;2023-05-23T10:24:24;99359.95;;;38.43;18.18
34103;BME280;20381;54.498;18.206;2023-05-23T10:26:53;99361.70;;;38.22;17.76
34103;BME280;20381;54.498;18.206;2023-05-23T10:29:24;99360.86;;;37.84;17.78
34103;BME280;20381;54.498;18.206;2023-05-23T10:31:52;99360.87;;;36.86;17.87
34103;BME280;20381;54.498;18.206;2023-05-23T10:34:36;99355.59;;;37.45;18.42
34103;BME280;20381;54.498;18.206;2023-05-23T10:37:04;99350.86;;;38.32;18.25
34103;BME280;20381;54.498;18.206;2023-05-23T10:39:45;99362.54;;;37.90;17.19
34103;BME280;20381;54.498;18.206;2023-05-23T10:45:18;99346.55;;;36.93;18.32
34103;BME280;20381;54.498;18.206;2023-05-23T10:47:48;99341.03;;;37.07;17.50
34103;BME280;20381;54.498;18.206;2023-05-23T10:50:29;99344.39;;;37.14;17.42
34103;BME280;20381;54.498;18.206;2023-05-23T10:52:59;99359.70;;;37.48;17.56
34103;BME280;20381;54.498;18.206;2023-05-23T10:55:32;99354.48;;;38.45;16.92
34103;BME280;20381;54.498;18.206;2023-05-23T10:58:17;99344.11;;;38.98;16.92
34103;BME280;20381;54.498;18.206;2023-05-23T11:00:56;99350.12;;;39.00;16.57
34103;BME280;20381;54.498;18.206;2023-05-23T11:03:37;99348.25;;;38.08;16.21
34103;BME280;20381;54.498;18.206;2023-05-23T11:06:05;99343.95;;;36.20;16.26
34103;BME280;20381;54.498;18.206;2023-05-23T11:08:38;99344.15;;;34.44;16.76
34103;BME280;20381;54.498;18.206;2023-05-23T11:11:08;99349.41;;;33.08;16.92
34103;BME280;20381;54.498;18.206;2023-05-23T11:13:55;99349.94;;;32.80;17.67
34103;BME280;20381;54.498;18.206;2023-05-23T11:16:44;99357.52;;;33.08;17.80
34103;BME280;20381;54.498;18.206;2023-05-23T11:19:21;99351.94;;;33.73;17.78
34103;BME280;20381;54.498;18.206;2023-05-23T11:24:30;99356.66;;;34.45;17.73
34103;BME280;20381;54.498;18.206;2023-05-23T11:26:58;99344.45;;;35.09;18.35
34103;BME280;20381;54.498;18.206;2023-05-23T11:29:29;99346.02;;;36.33;18.02
34103;BME280;20381;54.498;18.206;2023-05-23T11:31:56;99348.25;;;36.16;17.55
34103;BME280;20381;54.498;18.206;2023-05-23T11:34:25;99343.59;;;36.14;18.06
34103;BME280;20381;54.498;18.206;2023-05-23T11:36:53;99341.84;;;36.86;18.06
34103;BME280;20381;54.498;18.206;2023-05-23T11:39:21;99338.73;;;36.99;17.13
34103;BME280;20381;54.498;18.206;2023-05-23T11:42:02;99346.75;;;35.92;17.11
34103;BME280;20381;54.498;18.206;2023-05-23T11:44:29;99342.09;;;35.73;17.67
34103;BME280;20381;54.498;18.206;2023-05-23T11:47:02;99348.75;;;35.99;17.17
34103;BME280;20381;54.498;18.206;2023-05-23T11:49:37;99320.57;;;35.09;17.15
34103;BME280;20381;54.498;18.206;2023-05-23T11:52:04;99344.23;;;33.79;17.26
34103;BME280;20381;54.498;18.206;2023-05-23T11:54:32;99341.55;;;33.18;17.54
34103;BME280;20381;54.498;18.206;2023-05-23T11:56:59;99350.91;;;32.67;17.74
34103;BME280;20381;54.498;18.206;2023-05-23T11:59:26;99347.66;;;31.65;18.04
34103;BME280;20381;54.498;18.206;2023-05-23T12:01:54;99346.19;;;30.79;18.18
34103;BME280;20381;54.498;18.206;2023-05-23T12:04:21;99351.27;;;29.76;18.39
34103;BME280;20381;54.498;18.206;2023-05-23T12:06:49;99352.14;;;29.08;18.95
34103;BME280;20381;54.498;18.206;2023-05-23T12:09:16;99345.36;;;28.77;19.17
34103;BME280;20381;54.498;18.206;2023-05-23T12:11:43;99338.03;;;28.58;19.50
34103;BME280;20381;54.498;18.206;2023-05-23T12:14:15;99341.39;;;28.21;19.98
34103;BME280;20381;54.498;18.206;2023-05-23T12:16:44;99335.83;;;27.62;19.97
34103;BME280;20381;54.498;18.206;2023-05-23T12:19:12;99338.55;;;27.26;20.89
34103;BME280;20381;54.498;18.206;2023-05-23T12:21:48;99333.70;;;27.11;21.05
34103;BME280;20381;54.498;18.206;2023-05-23T12:24:22;99345.37;;;27.14;21.70
34103;BME280;20381;54.498;18.206;2023-05-23T12:26:58;99333.60;;;26.93;21.50
34103;BME280;20381;54.498;18.206;2023-05-23T12:29:13;99345.36;;;26.63;21.98
34103;BME280;20381;54.498;18.206;2023-05-23T12:31:40;99339.53;;;26.44;22.49
34103;BME280;20381;54.498;18.206;2023-05-23T12:34:10;99336.58;;;26.39;22.89
34103;BME280;20381;54.498;18.206;2023-05-23T12:36:37;99329.77;;;26.51;22.99
34103;BME280;20381;54.498;18.206;2023-05-23T12:39:04;99329.30;;;26.63;23.15
34103;BME280;20381;54.498;18.206;2023-05-23T12:41:34;99327.11;;;26.77;23.29
34103;BME280;20381;54.498;18.206;2023-05-23T12:44:01;99322.81;;;26.87;23.30
34103;BME280;20381;54.498;18.206;2023-05-23T12:46:27;99321.52;;;26.97;23.86
34103;BME280;20381;54.498;18.206;2023-05-23T12:48:53;99339.63;;;26.66;24.34
34103;BME280;20381;54.498;18.206;2023-05-23T12:51:20;99340.96;;;26.02;24.22
34103;BME280;20381;54.498;18.206;2023-05-23T12:53:46;99338.22;;;25.64;24.21
34103;BME280;20381;54.498;18.206;2023-05-23T12:56:13;99331.71;;;25.40;24.55
34103;BME280;20381;54.498;18.206;2023-05-23T12:58:39;99330.27;;;25.33;25.21
34103;BME280;20381;54.498;18.206;2023-05-23T13:01:06;99324.05;;;25.41;25.11
34103;BME280;20381;54.498;18.206;2023-05-23T13:03:32;99316.64;;;25.47;25.13
34103;BME280;20381;54.498;18.206;2023-05-23T13:05:58;99313.84;;;25.63;25.30
34103;BME280;20381;54.498;18.206;2023-05-23T13:08:26;99308.69;;;25.81;25.32